Time;durP1;ratioP1;P1;durP2;ratioP2;P2;SDS_P1;SDS_P2;PMS_P1;PMS_P2;Temp;Humidity;BMP_temperature;BMP_pressure;BME280_temperature;BME280_humidity;BME280_pressure;Samples;Min_cycle;Max_cycle;Signal;HPM_P1;HPM_P2
2022/07/13 00:02:18;;;;;;;41.83;2.88;;;19.30;95.60;;;;;;6188007;28;20278;-66
2022/07/13 00:05:23;;;;;;;30.77;2.63;;;19.30;94.00;;;;;;6174468;28;20451;-65
2022/07/13 00:08:29;;;;;;;35.45;3.17;;;19.30;94.30;;;;;;6164014;29;20270;-66
2022/07/13 00:11:34;;;;;;;16.42;2.53;;;19.30;95.20;;;;;;6164031;29;20446;-66
2022/07/13 00:14:42;;;;;;;33.40;2.70;;;19.30;95.40;;;;;;6163458;29;20306;-66
2022/07/13 00:17:47;;;;;;;21.13;2.50;;;19.20;95.90;;;;;;6164034;29;20280;-66
2022/07/13 00:20:52;;;;;;;18.73;2.53;;;19.20;95.90;;;;;;6163659;29;20450;-66
2022/07/13 00:23:58;;;;;;;20.58;1.92;;;19.10;96.60;;;;;;6163975;29;20292;-66
2022/07/13 00:27:03;;;;;;;15.35;2.13;;;19.10;96.80;;;;;;6164050;28;20279;-66
2022/07/13 00:30:12;;;;;;;20.98;2.28;;;19.00;96.80;;;;;;6167525;29;20274;-66
2022/07/13 00:33:17;;;;;;;18.25;2.08;;;19.00;96.70;;;;;;6167231;28;20274;-66
2022/07/13 00:36:22;;;;;;;27.23;2.10;;;19.00;97.20;;;;;;6167736;29;20361;-66
2022/07/13 00:39:28;;;;;;;34.95;2.90;;;19.00;97.50;;;;;;6168373;28;20274;-66
2022/07/13 00:42:34;;;;;;;27.98;2.45;;;19.00;97.90;;;;;;6168129;29;20286;-66
2022/07/13 00:45:41;;;;;;;16.20;2.55;;;19.00;98.00;;;;;;6168210;28;20285;-66
2022/07/13 00:48:47;;;;;;;26.10;2.63;;;19.00;98.20;;;;;;6166879;29;20444;-66
2022/07/13 00:51:52;;;;;;;25.60;3.25;;;19.00;98.20;;;;;;6167914;29;20274;-66
2022/07/13 00:54:57;;;;;;;28.67;3.03;;;19.00;98.60;;;;;;6166529;28;20294;-66
2022/07/13 00:58:03;;;;;;;31.23;3.25;;;19.00;98.80;;;;;;6166639;28;20278;-66
2022/07/13 01:01:09;;;;;;;26.02;2.90;;;19.00;99.10;;;;;;6167541;28;20274;-66
2022/07/13 01:04:15;;;;;;;24.17;2.85;;;19.00;99.80;;;;;;6167557;29;20262;-66
2022/07/13 01:07:20;;;;;;;21.83;2.75;;;19.00;99.90;;;;;;6167436;29;20538;-66
2022/07/13 01:10:26;;;;;;;25.83;2.85;;;19.00;99.60;;;;;;6167022;28;20590;-66
2022/07/13 01:13:31;;;;;;;19.58;2.97;;;19.10;99.90;;;;;;6165837;29;20302;-66
2022/07/13 01:16:38;;;;;;;39.10;3.92;;;19.10;99.90;;;;;;6166722;29;20298;-66
2022/07/13 01:19:43;;;;;;;34.25;3.65;;;19.00;99.90;;;;;;6166835;29;20278;-66
2022/07/13 01:22:53;;;;;;;31.17;3.50;;;19.00;99.90;;;;;;6165974;29;20279;-66
2022/07/13 01:26:00;;;;;;;20.65;2.67;;;19.10;99.90;;;;;;6167025;28;20282;-66
2022/07/13 01:29:06;;;;;;;9.68;2.47;;;19.00;99.90;;;;;;6165895;29;20282;-66
2022/07/13 01:32:13;;;;;;;2.80;2.33;;;19.00;99.90;;;;;;6165773;29;20283;-66
2022/07/13 01:35:19;;;;;;;5.13;1.75;;;19.10;99.90;;;;;;6166772;29;20597;-66
2022/07/13 01:38:25;;;;;;;1.80;1.52;;;19.10;99.90;;;;;;6165604;29;20278;-66
2022/07/13 01:41:32;;;;;;;3.33;1.50;;;19.10;99.90;;;;;;6166631;28;20290;-66
2022/07/13 01:44:37;;;;;;;4.53;1.95;;;19.10;99.90;;;;;;6165494;29;20582;-66
2022/07/13 01:47:47;;;;;;;3.65;1.83;;;19.10;99.90;;;;;;6165188;29;20274;-66
2022/07/13 01:50:52;;;;;;;1.60;1.60;;;19.20;99.90;;;;;;6164994;29;20275;-66
2022/07/13 01:53:57;;;;;;;2.90;1.63;;;19.10;99.90;;;;;;6166508;28;20274;-66
2022/07/13 01:57:04;;;;;;;2.97;2.08;;;19.20;99.90;;;;;;6164437;29;20609;-66
2022/07/13 02:00:16;;;;;;;2.80;2.20;;;19.20;99.90;;;;;;6164523;29;20274;-66
2022/07/13 02:03:23;;;;;;;2.40;2.10;;;19.20;99.90;;;;;;6164747;29;20270;-66
2022/07/13 02:06:28;;;;;;;2.35;2.25;;;19.20;99.90;;;;;;6150914;29;20429;-66
2022/07/13 02:09:34;;;;;;;15.18;2.83;;;19.20;99.90;;;;;;6165991;28;20443;-66
2022/07/13 02:12:41;;;;;;;7.53;3.13;;;19.10;99.90;;;;;;6164950;28;20455;-66
2022/07/13 02:15:46;;;;;;;2.72;2.00;;;19.20;99.90;;;;;;6164879;28;20294;-66
2022/07/13 02:18:51;;;;;;;11.00;2.67;;;19.20;99.90;;;;;;6164556;29;20278;-66
2022/07/13 02:21:57;;;;;;;3.00;1.90;;;19.10;99.90;;;;;;6164576;29;20274;-66
2022/07/13 02:25:02;;;;;;;3.92;2.10;;;19.10;99.90;;;;;;6165394;29;20278;-66
2022/07/13 02:28:09;;;;;;;6.43;2.17;;;19.10;99.90;;;;;;6165522;28;20278;-66
2022/07/13 02:31:17;;;;;;;3.75;2.00;;;19.10;99.90;;;;;;6165497;28;20274;-66
2022/07/13 02:34:27;;;;;;;3.88;2.20;;;19.20;99.90;;;;;;6165257;29;20274;-67
2022/07/13 02:37:32;;;;;;;3.33;2.38;;;19.10;99.90;;;;;;6164465;28;20294;-66
2022/07/13 02:40:37;;;;;;;3.05;2.78;;;19.10;99.90;;;;;;6165637;28;20271;-66
2022/07/13 02:43:44;;;;;;;4.38;1.92;;;19.10;99.90;;;;;;6165165;28;20295;-66
2022/07/13 02:46:49;;;;;;;3.20;1.98;;;19.20;99.90;;;;;;6164287;28;20314;-66
2022/07/13 02:49:57;;;;;;;2.10;2.03;;;19.10;99.90;;;;;;6164186;28;20274;-66
2022/07/13 02:53:02;;;;;;;2.15;1.77;;;19.10;99.90;;;;;;6163532;28;20283;-66
2022/07/13 02:56:08;;;;;;;2.45;2.08;;;19.10;99.90;;;;;;6163692;29;20294;-66
2022/07/13 02:59:15;;;;;;;2.97;2.20;;;19.20;99.90;;;;;;6163987;29;20274;-66
2022/07/13 03:02:21;;;;;;;3.83;2.35;;;19.20;99.90;;;;;;6163749;28;20278;-66
2022/07/13 03:05:26;;;;;;;2.47;1.70;;;19.10;99.90;;;;;;6164961;29;20411;-66
2022/07/13 03:08:32;;;;;;;2.75;2.28;;;19.10;99.90;;;;;;6163485;29;20278;-66
2022/07/13 03:11:37;;;;;;;3.67;2.53;;;19.10;99.90;;;;;;6164327;28;20270;-66
2022/07/13 03:14:46;;;;;;;2.25;2.05;;;19.10;99.90;;;;;;6162754;29;20366;-66
2022/07/13 03:17:51;;;;;;;7.90;2.05;;;19.10;99.90;;;;;;6162955;29;20298;-66
2022/07/13 03:20:56;;;;;;;4.15;2.15;;;19.10;99.90;;;;;;6163177;29;20274;-66
2022/07/13 03:24:01;;;;;;;4.53;2.13;;;19.10;99.90;;;;;;6164615;28;20279;-66
2022/07/13 03:27:09;;;;;;;5.68;2.00;;;19.10;99.90;;;;;;6164161;28;20278;-66
2022/07/13 03:30:15;;;;;;;2.28;2.10;;;19.10;99.90;;;;;;6163070;29;20274;-66
2022/07/13 03:33:21;;;;;;;6.47;2.22;;;19.10;99.90;;;;;;6164036;28;20275;-66
2022/07/13 03:36:27;;;;;;;4.28;2.00;;;19.10;99.90;;;;;;6163074;29;20274;-66
2022/07/13 03:39:33;;;;;;;5.97;2.20;;;19.10;99.90;;;;;;6163076;29;20278;-66
2022/07/13 03:42:40;;;;;;;3.80;2.50;;;19.20;99.90;;;;;;6162914;29;20274;-66
2022/07/13 03:45:47;;;;;;;2.45;2.00;;;19.30;99.90;;;;;;6162957;29;20465;-66
2022/07/13 03:48:53;;;;;;;2.65;1.90;;;19.30;99.90;;;;;;6162697;29;20274;-66
2022/07/13 03:52:00;;;;;;;6.30;2.58;;;19.30;99.90;;;;;;6162813;29;20278;-66
2022/07/13 03:55:07;;;;;;;12.13;2.28;;;19.30;99.90;;;;;;6162629;29;20459;-66
2022/07/13 03:58:14;;;;;;;8.80;2.60;;;19.20;99.90;;;;;;6162898;29;20298;-66
2022/07/13 04:01:22;;;;;;;7.55;2.20;;;19.20;99.90;;;;;;6162756;29;20304;-66
2022/07/13 04:04:28;;;;;;;4.90;3.05;;;19.30;99.90;;;;;;6165826;28;20267;-66
2022/07/13 04:07:36;;;;;;;4.32;2.30;;;19.20;99.90;;;;;;6167842;28;20282;-67
2022/07/13 04:10:43;;;;;;;3.53;2.00;;;19.20;99.90;;;;;;6151821;29;20274;-67
2022/07/13 04:13:51;;;;;;;3.55;2.00;;;19.10;99.90;;;;;;6172238;28;20298;-66
2022/07/13 04:16:59;;;;;;;3.35;2.10;;;19.20;99.90;;;;;;6183132;28;20280;-66
2022/07/13 04:20:06;;;;;;;2.40;2.20;;;19.30;99.90;;;;;;6183233;28;20278;-66
2022/07/13 04:23:13;;;;;;;3.45;2.28;;;19.30;99.90;;;;;;6182969;28;20275;-66
2022/07/13 04:26:19;;;;;;;4.05;2.03;;;19.30;99.90;;;;;;6183203;28;20274;-66
2022/07/13 04:29:25;;;;;;;1.90;1.83;;;19.40;99.90;;;;;;6182941;28;20283;-67
2022/07/13 04:32:31;;;;;;;2.75;2.05;;;19.40;99.90;;;;;;6182947;28;20274;-67
2022/07/13 04:35:37;;;;;;;8.20;1.80;;;19.40;99.90;;;;;;6182865;28;20278;-66
2022/07/13 04:38:42;;;;;;;1.67;1.67;;;19.40;99.90;;;;;;6182770;28;20294;-67
2022/07/13 04:41:48;;;;;;;3.00;1.92;;;19.30;99.90;;;;;;6182500;28;20279;-66
2022/07/13 04:44:53;;;;;;;2.60;1.70;;;19.30;99.90;;;;;;6182593;28;20553;-66
2022/07/13 04:48:00;;;;;;;2.65;1.80;;;19.40;99.90;;;;;;6167789;28;20278;-66
2022/07/13 04:51:10;;;;;;;1.88;1.77;;;19.40;99.90;;;;;;6182362;28;20274;-66
2022/07/13 04:54:17;;;;;;;1.95;1.83;;;19.40;99.90;;;;;;6182670;28;20576;-67
2022/07/13 04:57:22;;;;;;;1.70;1.60;;;19.40;99.90;;;;;;6182161;28;20493;-66
2022/07/13 05:00:27;;;;;;;3.58;1.85;;;19.50;99.90;;;;;;6167432;28;20270;-67
2022/07/13 05:03:36;;;;;;;6.40;1.90;;;19.50;99.90;;;;;;6182279;28;20274;-67
2022/07/13 05:06:42;;;;;;;2.88;1.70;;;19.50;99.90;;;;;;6165942;28;20451;-66
2022/07/13 05:09:47;;;;;;;4.55;1.70;;;19.60;99.90;;;;;;6166338;29;20283;-67
2022/07/13 05:12:52;;;;;;;2.15;1.95;;;19.50;99.90;;;;;;6172378;28;20301;-67
2022/07/13 05:16:18;;;;;;;8.35;1.80;;;19.60;99.90;;;;;;6173167;28;20557;-66
2022/07/13 05:19:25;;;;;;;2.80;2.05;;;19.60;99.90;;;;;;6173356;28;20294;-67
2022/07/13 05:22:31;;;;;;;2.90;2.00;;;19.70;99.90;;;;;;6173786;28;20274;-66
2022/07/13 05:25:37;;;;;;;3.15;2.20;;;19.70;99.90;;;;;;6173628;28;20274;-67
2022/07/13 05:28:43;;;;;;;3.38;2.03;;;19.70;99.90;;;;;;6173267;28;20564;-67
2022/07/13 05:31:51;;;;;;;5.70;2.20;;;19.80;99.90;;;;;;6173361;28;20274;-66
2022/07/13 05:34:58;;;;;;;4.15;2.05;;;19.90;99.90;;;;;;6190710;28;20297;-66
2022/07/13 05:38:04;;;;;;;2.10;2.00;;;20.00;99.90;;;;;;6173342;28;20273;-66
2022/07/13 05:41:09;;;;;;;2.65;1.90;;;20.20;99.90;;;;;;6173456;28;20269;-66
2022/07/13 05:44:15;;;;;;;3.05;1.90;;;20.40;99.90;;;;;;6173394;28;20569;-66
2022/07/13 05:47:20;;;;;;;2.60;1.90;;;20.60;99.90;;;;;;6173158;28;20277;-66
2022/07/13 05:50:28;;;;;;;2.03;2.00;;;20.70;99.90;;;;;;6172985;28;20277;-66
2022/07/13 05:53:33;;;;;;;5.43;1.95;;;20.90;99.90;;;;;;6172711;28;20274;-66
2022/07/13 05:56:39;;;;;;;4.63;2.10;;;21.10;99.90;;;;;;6173198;28;20289;-66
2022/07/13 05:59:44;;;;;;;2.25;1.90;;;21.20;99.90;;;;;;6190268;28;20297;-66
2022/07/13 06:02:49;;;;;;;4.10;1.92;;;21.30;99.90;;;;;;6190019;28;20274;-66
2022/07/13 06:05:56;;;;;;;4.68;1.92;;;21.50;99.90;;;;;;6172657;28;20286;-66
2022/07/13 06:09:02;;;;;;;1.85;1.73;;;21.60;99.90;;;;;;6166332;28;20278;-66
2022/07/13 06:12:07;;;;;;;3.65;1.77;;;21.70;99.90;;;;;;6166096;29;20279;-67
2022/07/13 06:15:13;;;;;;;3.20;2.08;;;21.80;99.90;;;;;;6165667;28;20301;-67
2022/07/13 06:18:18;;;;;;;3.22;2.28;;;21.80;99.90;;;;;;6166071;28;20279;-67
2022/07/13 06:21:25;;;;;;;5.57;1.98;;;21.90;99.90;;;;;;6165498;29;20294;-67
2022/07/13 06:24:30;;;;;;;2.47;2.17;;;22.00;99.90;;;;;;6165506;29;20274;-67
2022/07/13 06:27:36;;;;;;;3.85;1.80;;;22.10;99.90;;;;;;6164419;28;20461;-68
2022/07/13 06:30:41;;;;;;;2.20;1.80;;;22.10;99.90;;;;;;6165817;28;20278;-66
2022/07/13 06:33:51;;;;;;;1.80;1.70;;;22.20;99.90;;;;;;6165682;29;20278;-66
2022/07/13 06:36:57;;;;;;;2.53;2.03;;;22.10;99.90;;;;;;6165626;28;20275;-67
2022/07/13 06:40:03;;;;;;;2.63;1.70;;;22.30;99.90;;;;;;6164814;29;20310;-68
2022/07/13 06:43:09;;;;;;;7.78;2.30;;;22.40;99.90;;;;;;6165132;28;20294;-67
2022/07/13 06:46:15;;;;;;;17.08;2.30;;;22.30;99.90;;;;;;6165254;29;20274;-67
2022/07/13 06:49:25;;;;;;;2.95;1.80;;;22.30;99.90;;;;;;6165360;29;20282;-67
2022/07/13 06:52:32;;;;;;;4.28;1.92;;;22.30;99.90;;;;;;6165025;29;20278;-67
2022/07/13 06:55:37;;;;;;;2.03;1.98;;;22.40;99.90;;;;;;6164684;29;20270;-67
2022/07/13 06:58:42;;;;;;;2.10;2.00;;;22.50;99.90;;;;;;6165092;29;20569;-67
2022/07/13 07:01:48;;;;;;;5.25;2.00;;;22.60;99.90;;;;;;6164851;29;20586;-67
2022/07/13 07:04:54;;;;;;;4.78;2.17;;;22.60;99.90;;;;;;6164376;29;20266;-67
2022/07/13 07:08:02;;;;;;;4.30;2.08;;;22.70;99.90;;;;;;6164378;28;20460;-67
2022/07/13 07:11:07;;;;;;;4.80;2.00;;;22.70;99.90;;;;;;6164736;29;20279;-67
2022/07/13 07:14:13;;;;;;;6.45;2.13;;;22.70;99.90;;;;;;6180184;28;20483;-67
2022/07/13 07:17:18;;;;;;;4.43;2.13;;;22.80;99.90;;;;;;6188473;28;20273;-67
2022/07/13 07:20:23;;;;;;;5.60;2.17;;;22.80;99.90;;;;;;6188416;28;20298;-67
2022/07/13 07:23:30;;;;;;;2.00;1.90;;;22.90;99.90;;;;;;6188408;28;20270;-67
2022/07/13 07:26:36;;;;;;;2.92;2.00;;;22.90;99.90;;;;;;6188359;28;20270;-67
2022/07/13 07:29:41;;;;;;;1.80;1.70;;;22.90;99.90;;;;;;6187730;28;20266;-67
2022/07/13 07:32:46;;;;;;;2.03;1.90;;;22.90;99.90;;;;;;6188126;28;20278;-67
2022/07/13 07:35:51;;;;;;;2.10;1.98;;;23.10;99.90;;;;;;6188119;28;20274;-67
2022/07/13 07:38:58;;;;;;;2.10;2.00;;;23.20;99.90;;;;;;6187504;28;20273;-67
2022/07/13 07:42:04;;;;;;;3.65;2.20;;;23.30;99.90;;;;;;6187975;28;20308;-67
2022/07/13 07:45:11;;;;;;;2.50;2.05;;;23.40;99.90;;;;;;6187696;28;20273;-67
2022/07/13 07:48:17;;;;;;;3.22;2.28;;;23.30;99.90;;;;;;6187998;28;20273;-67
2022/07/13 07:51:22;;;;;;;3.80;2.00;;;23.30;99.90;;;;;;6187728;28;20463;-67
2022/07/13 07:54:28;;;;;;;5.68;2.05;;;23.30;99.90;;;;;;6187675;28;20273;-67
2022/07/13 07:57:46;;;;;;;4.03;2.20;;;23.30;99.90;;;;;;6188057;28;20446;-67
2022/07/13 08:00:51;;;;;;;2.15;1.92;;;23.30;99.90;;;;;;6187796;28;20294;-66
2022/07/13 08:03:56;;;;;;;2.45;2.25;;;23.40;99.90;;;;;;6185971;28;20294;-67
2022/07/13 08:07:01;;;;;;;3.90;2.22;;;23.50;99.90;;;;;;6163814;28;20278;-67
2022/07/13 08:10:09;;;;;;;3.05;2.13;;;23.50;99.90;;;;;;6164376;28;20274;-67
2022/07/13 08:13:31;;;;;;;3.80;2.10;;;23.60;99.90;;;;;;6164384;28;20307;-67
2022/07/13 08:16:37;;;;;;;3.67;2.40;;;23.60;99.90;;;;;;6164055;29;20274;-67
2022/07/13 08:19:42;;;;;;;2.85;2.65;;;23.60;99.90;;;;;;6163796;29;20279;-66
2022/07/13 08:22:47;;;;;;;2.55;2.33;;;23.60;99.90;;;;;;6163726;29;20294;-66
2022/07/13 08:25:54;;;;;;;4.28;2.42;;;23.60;99.90;;;;;;6163938;29;20274;-67
2022/07/13 08:29:01;;;;;;;2.67;2.40;;;23.70;99.90;;;;;;6163988;28;20275;-67
2022/07/13 08:32:06;;;;;;;5.45;2.83;;;23.90;99.90;;;;;;6163934;28;20283;-67
2022/07/13 08:38:37;;;;;;;5.15;2.60;;;23.90;99.90;;;;;;6163802;28;20461;-66
2022/07/13 08:41:44;;;;;;;3.20;2.33;;;24.00;99.80;;;;;;6163578;29;20294;-67
2022/07/13 08:44:49;;;;;;;5.78;2.38;;;24.00;99.30;;;;;;6163560;29;20278;-67
2022/07/13 08:47:54;;;;;;;2.75;2.55;;;23.90;99.00;;;;;;6163632;28;20274;-67
2022/07/13 08:50:59;;;;;;;6.10;2.85;;;24.00;99.20;;;;;;6166412;28;20278;-67
2022/07/13 08:54:06;;;;;;;3.70;2.60;;;24.00;99.10;;;;;;6167964;28;20278;-67
2022/07/13 08:57:17;;;;;;;3.80;2.40;;;24.00;99.40;;;;;;6167332;29;20274;-67
2022/07/13 09:00:22;;;;;;;3.22;2.53;;;23.90;98.30;;;;;;6167330;29;20279;-68
2022/07/13 09:03:28;;;;;;;4.57;2.70;;;23.90;98.60;;;;;;6167695;29;20298;-68
2022/07/13 09:06:48;;;;;;;4.45;2.30;;;24.00;98.80;;;;;;6167757;29;20266;-68
2022/07/13 09:09:56;;;;;;;2.63;2.53;;;23.90;99.20;;;;;;6167432;28;20279;-68
2022/07/13 09:13:36;;;;;;;3.88;2.60;;;23.90;99.20;;;;;;6175247;28;20307;-68
2022/07/13 09:16:41;;;;;;;2.65;2.55;;;24.00;98.90;;;;;;6191223;28;20270;-68
2022/07/13 09:19:46;;;;;;;4.55;2.80;;;23.90;99.20;;;;;;6191029;28;20274;-68
2022/07/13 09:22:54;;;;;;;5.28;2.75;;;23.90;98.70;;;;;;6190744;28;20294;-68
2022/07/13 09:26:00;;;;;;;4.45;2.45;;;24.00;99.50;;;;;;6190523;28;20269;-68
2022/07/13 09:29:07;;;;;;;3.15;2.83;;;23.90;98.90;;;;;;6190956;28;20313;-68
2022/07/13 09:32:13;;;;;;;2.22;2.15;;;23.90;98.90;;;;;;6190600;28;20471;-68
2022/07/13 09:35:21;;;;;;;3.10;2.72;;;23.90;99.70;;;;;;6190898;28;20278;-68
2022/07/13 09:38:31;;;;;;;2.75;2.35;;;23.90;99.80;;;;;;6190350;28;20290;-68
2022/07/13 09:41:37;;;;;;;2.67;2.20;;;23.90;99.30;;;;;;6190223;28;20289;-68
2022/07/13 09:48:19;;;;;;;6.40;2.63;;;24.00;99.30;;;;;;6190478;28;20270;-68
2022/07/13 09:51:27;;;;;;;8.90;2.67;;;24.10;99.10;;;;;;6190446;28;20278;-68
2022/07/13 09:54:35;;;;;;;3.25;2.30;;;24.10;98.80;;;;;;6189621;28;20459;-68
2022/07/13 09:57:46;;;;;;;2.70;2.50;;;24.00;99.10;;;;;;6190295;28;20310;-68
2022/07/13 10:01:04;;;;;;;3.15;2.38;;;24.10;98.80;;;;;;6190227;28;20274;-68
2022/07/13 10:04:11;;;;;;;2.25;2.15;;;24.10;99.70;;;;;;6185597;28;20290;-68
2022/07/13 10:07:37;;;;;;;4.00;2.85;;;24.20;99.10;;;;;;6166309;28;20270;-68
2022/07/13 10:10:42;;;;;;;7.55;2.70;;;24.20;98.70;;;;;;6165998;29;20270;-68
2022/07/13 10:13:48;;;;;;;4.50;2.78;;;24.20;99.50;;;;;;6165763;29;20475;-68
2022/07/13 10:16:59;;;;;;;3.25;3.00;;;24.30;99.00;;;;;;6166031;28;20278;-68
2022/07/13 10:20:10;;;;;;;3.28;3.08;;;24.30;98.70;;;;;;6165707;28;20287;-67
2022/07/13 10:23:34;;;;;;;5.30;2.58;;;24.30;99.00;;;;;;6165750;28;20299;-68
2022/07/13 10:26:49;;;;;;;3.47;3.22;;;24.30;99.10;;;;;;6165193;29;20275;-68
2022/07/13 10:29:56;;;;;;;2.92;2.65;;;24.30;99.00;;;;;;6165401;28;20274;-68
2022/07/13 10:33:22;;;;;;;7.53;2.67;;;24.40;98.60;;;;;;6165426;28;20282;-68
2022/07/13 10:36:54;;;;;;;2.70;2.50;;;24.50;97.70;;;;;;6165304;29;20423;-68
2022/07/13 10:40:16;;;;;;;5.63;2.80;;;24.50;98.20;;;;;;6165356;29;20274;-68
2022/07/13 10:43:21;;;;;;;3.08;2.80;;;24.60;97.50;;;;;;6165132;29;20295;-66
2022/07/13 10:46:48;;;;;;;3.88;2.47;;;24.70;97.50;;;;;;6165115;28;20274;-67
2022/07/13 10:49:56;;;;;;;2.25;2.15;;;24.80;96.50;;;;;;6164698;29;20275;-67
2022/07/13 10:53:01;;;;;;;7.55;2.72;;;24.80;95.50;;;;;;6164514;29;20278;-67
2022/07/13 10:56:23;;;;;;;4.68;2.35;;;24.80;95.90;;;;;;6164978;28;20279;-67
2022/07/13 10:59:47;;;;;;;2.25;2.13;;;24.90;95.20;;;;;;6164774;28;20441;-67
2022/07/13 11:02:55;;;;;;;7.55;2.22;;;25.00;95.00;;;;;;6164557;29;20290;-66
2022/07/13 11:06:08;;;;;;;2.53;2.42;;;24.90;94.80;;;;;;6182938;28;20266;-67
2022/07/13 11:09:18;;;;;;;2.83;2.25;;;24.90;95.30;;;;;;6188269;28;20318;-67
2022/07/13 11:12:24;;;;;;;2.28;2.17;;;24.90;94.20;;;;;;6187633;28;20273;-67
2022/07/13 11:15:50;;;;;;;2.55;2.30;;;25.00;93.60;;;;;;6186971;28;20543;-66
2022/07/13 11:18:55;;;;;;;4.88;1.90;;;25.00;93.50;;;;;;6186615;28;20274;-67
2022/07/13 11:22:08;;;;;;;2.78;1.90;;;25.10;93.10;;;;;;6187925;28;20269;-67
2022/07/13 11:25:38;;;;;;;5.05;4.57;;;25.10;92.20;;;;;;6187814;28;20290;-67
2022/07/13 11:28:51;;;;;;;3.42;3.22;;;25.20;92.20;;;;;;6188098;28;20273;-68
2022/07/13 11:31:57;;;;;;;3.47;2.00;;;25.30;92.90;;;;;;6187872;28;20302;-68
2022/07/13 11:35:05;;;;;;;2.13;2.13;;;25.10;91.90;;;;;;6187797;28;20277;-68
2022/07/13 11:38:19;;;;;;;4.82;3.83;;;25.20;92.40;;;;;;6187903;28;20269;-68
2022/07/13 11:41:24;;;;;;;3.40;3.20;;;25.20;92.50;;;;;;6187938;28;20269;-68
2022/07/13 11:44:31;;;;;;;6.45;4.07;;;25.10;92.70;;;;;;6187521;28;20592;-67
2022/07/13 11:47:37;;;;;;;4.55;3.35;;;25.20;93.20;;;;;;6188237;28;20273;-67
2022/07/13 11:50:48;;;;;;;3.22;3.03;;;25.20;92.40;;;;;;6187925;28;20277;-67
2022/07/13 11:53:54;;;;;;;3.58;3.38;;;25.30;92.60;;;;;;6188117;28;20282;-67
2022/07/13 11:57:00;;;;;;;3.47;3.17;;;25.30;93.30;;;;;;6187483;28;20281;-67
2022/07/13 12:00:08;;;;;;;8.23;3.13;;;25.40;93.30;;;;;;6187378;28;20273;-67
2022/07/13 12:03:17;;;;;;;2.30;2.30;;;25.40;93.70;;;;;;6187289;28;20293;-67
2022/07/13 12:06:28;;;;;;;6.88;3.00;;;25.30;94.10;;;;;;6166509;28;20400;-67
2022/07/13 12:09:35;;;;;;;9.40;3.47;;;25.20;94.50;;;;;;6163896;29;20275;-67
2022/07/13 12:12:40;;;;;;;7.82;3.35;;;25.10;94.80;;;;;;6163444;29;20300;-67
2022/07/13 12:15:46;;;;;;;3.15;2.80;;;25.10;94.30;;;;;;6163680;29;20278;-67
2022/07/13 12:19:04;;;;;;;4.88;2.83;;;25.20;94.30;;;;;;6163517;28;20274;-68
2022/07/13 12:22:12;;;;;;;6.00;3.08;;;25.30;93.40;;;;;;6163940;28;20274;-68
2022/07/13 12:25:26;;;;;;;3.65;3.35;;;25.30;93.60;;;;;;6166211;28;20293;-68
2022/07/13 12:28:31;;;;;;;4.15;3.40;;;25.40;93.10;;;;;;6168266;28;20279;-67
2022/07/13 12:31:49;;;;;;;3.40;3.20;;;25.40;93.20;;;;;;6168250;29;20274;-67
2022/07/13 12:34:55;;;;;;;2.90;2.90;;;25.50;93.00;;;;;;6168196;29;20327;-66
2022/07/13 12:38:01;;;;;;;6.00;2.80;;;25.40;93.10;;;;;;6168067;28;20274;-68
2022/07/13 12:41:08;;;;;;;3.22;3.08;;;25.40;93.30;;;;;;6168094;28;20472;-68
2022/07/13 12:44:13;;;;;;;4.63;3.13;;;25.40;93.60;;;;;;6167842;29;20297;-68
2022/07/13 12:47:24;;;;;;;3.45;3.25;;;25.40;93.70;;;;;;6167494;28;20270;-68
2022/07/13 12:50:30;;;;;;;3.78;3.33;;;25.40;93.50;;;;;;6167982;29;20275;-68
2022/07/13 12:53:46;;;;;;;3.92;3.65;;;25.50;93.50;;;;;;6182814;28;20275;-68
2022/07/13 12:56:53;;;;;;;4.05;3.63;;;25.50;92.30;;;;;;6167333;29;20462;-68
2022/07/13 13:00:01;;;;;;;3.50;3.40;;;25.40;93.10;;;;;;6166980;28;20279;-68
2022/07/13 13:03:07;;;;;;;3.80;3.60;;;25.30;93.80;;;;;;6167723;28;20274;-68
2022/07/13 13:06:12;;;;;;;4.28;3.90;;;25.30;92.60;;;;;;6186770;28;20617;-68
2022/07/13 13:09:20;;;;;;;8.50;5.13;;;25.30;93.10;;;;;;6190800;28;20273;-66
2022/07/13 13:12:26;;;;;;;6.20;4.00;;;25.20;93.80;;;;;;6190364;28;20278;-66
2022/07/13 13:15:32;;;;;;;4.22;3.50;;;25.30;93.40;;;;;;6190553;28;20557;-66
2022/07/13 13:18:37;;;;;;;4.07;3.70;;;25.20;92.80;;;;;;6190545;28;20554;-67
2022/07/13 13:21:43;;;;;;;3.78;3.58;;;25.30;93.30;;;;;;6190541;28;20279;-67
2022/07/13 13:24:49;;;;;;;3.95;3.65;;;25.30;93.40;;;;;;6190253;28;20294;-67
2022/07/13 13:27:55;;;;;;;3.45;3.25;;;25.30;93.10;;;;;;6190551;28;20274;-66
2022/07/13 13:31:07;;;;;;;3.63;3.38;;;25.30;93.30;;;;;;6190244;28;20435;-67
2022/07/13 13:34:13;;;;;;;3.00;2.90;;;25.30;94.00;;;;;;6190672;28;20305;-67
2022/07/13 13:37:25;;;;;;;4.35;3.10;;;25.30;93.20;;;;;;6189600;28;20279;-67
2022/07/13 13:40:30;;;;;;;4.15;3.13;;;25.30;93.00;;;;;;6190000;28;20274;-67
2022/07/13 13:43:39;;;;;;;2.80;2.55;;;25.30;93.30;;;;;;6190392;28;20273;-67
2022/07/13 13:46:45;;;;;;;3.38;2.92;;;25.40;93.50;;;;;;6189836;28;20293;-67
2022/07/13 13:49:50;;;;;;;4.60;2.75;;;25.50;93.10;;;;;;6189896;28;20278;-67
2022/07/13 13:52:55;;;;;;;4.32;3.92;;;25.40;92.70;;;;;;6189623;28;20460;-67
2022/07/13 13:56:01;;;;;;;4.50;3.10;;;25.50;92.80;;;;;;6190019;28;20281;-67
2022/07/13 13:59:14;;;;;;;12.68;2.30;;;25.60;94.00;;;;;;6189436;28;20278;-66
2022/07/13 14:02:19;;;;;;;3.33;1.85;;;25.90;91.80;;;;;;6189722;28;20282;-67
2022/07/13 14:05:25;;;;;;;3.42;2.15;;;26.70;91.90;;;;;;6176350;28;20290;-67
2022/07/13 14:08:30;;;;;;;2.60;2.40;;;27.20;91.20;;;;;;6165611;28;20323;-67
2022/07/13 14:11:39;;;;;;;2.10;2.00;;;27.00;90.00;;;;;;6165868;29;20275;-68
2022/07/13 14:14:47;;;;;;;2.58;2.50;;;27.00;90.00;;;;;;6165670;29;20302;-67
2022/07/13 14:17:55;;;;;;;2.28;2.17;;;26.90;90.00;;;;;;6165275;29;20279;-67
2022/07/13 14:21:01;;;;;;;3.13;2.30;;;26.60;89.80;;;;;;6165665;28;20554;-67
2022/07/13 14:24:07;;;;;;;2.13;1.88;;;26.20;90.50;;;;;;6165564;29;20279;-67
2022/07/13 14:27:25;;;;;;;2.10;2.00;;;25.90;90.00;;;;;;6165146;28;20298;-67
2022/07/13 14:30:31;;;;;;;2.35;2.25;;;25.60;90.30;;;;;;6165329;28;20274;-67
2022/07/13 14:33:37;;;;;;;3.63;2.20;;;25.60;90.90;;;;;;6165336;29;20274;-67
2022/07/13 14:36:42;;;;;;;1.77;1.67;;;25.50;91.00;;;;;;6165084;28;20278;-67
2022/07/13 14:39:48;;;;;;;5.22;2.08;;;25.40;91.00;;;;;;6165303;28;20278;-67
2022/07/13 14:42:53;;;;;;;2.83;1.83;;;25.60;91.20;;;;;;6164719;28;20602;-67
2022/07/13 14:45:59;;;;;;;3.42;1.60;;;25.70;90.30;;;;;;6164653;28;20294;-67
2022/07/13 14:49:05;;;;;;;3.80;1.80;;;25.70;88.50;;;;;;6164007;28;20274;-67
2022/07/13 14:52:24;;;;;;;1.70;1.70;;;25.50;87.30;;;;;;6164901;28;20275;-68
2022/07/13 14:55:30;;;;;;;3.50;1.92;;;25.40;89.20;;;;;;6164515;29;20465;-68
2022/07/13 14:58:35;;;;;;;2.33;2.10;;;25.40;90.50;;;;;;6164854;28;20413;-68
2022/07/13 15:01:49;;;;;;;2.85;1.92;;;25.20;90.70;;;;;;6164554;28;20434;-68
2022/07/13 15:04:56;;;;;;;3.22;2.00;;;25.30;91.40;;;;;;6173881;28;20267;-68
2022/07/13 15:08:01;;;;;;;1.90;1.90;;;25.50;91.90;;;;;;6188375;28;20297;-68
2022/07/13 15:11:07;;;;;;;2.22;2.13;;;25.70;91.10;;;;;;6188410;28;20281;-68
2022/07/13 15:14:13;;;;;;;6.25;1.92;;;25.70;91.00;;;;;;6188015;28;20301;-68
2022/07/13 15:17:20;;;;;;;3.42;2.05;;;25.60;90.80;;;;;;6187715;28;20278;-68
2022/07/13 15:20:25;;;;;;;3.50;2.08;;;25.50;91.00;;;;;;6187906;28;20278;-69
2022/07/13 15:23:31;;;;;;;3.90;2.30;;;25.40;91.20;;;;;;6188195;28;20290;-68
2022/07/13 15:26:36;;;;;;;2.13;2.03;;;25.50;90.90;;;;;;6187701;28;20600;-66
2022/07/13 15:29:42;;;;;;;2.55;2.08;;;25.90;90.90;;;;;;6187777;28;20278;-67
2022/07/13 15:32:49;;;;;;;3.38;2.50;;;27.10;90.40;;;;;;6188213;28;20274;-67
2022/07/13 15:35:55;;;;;;;3.60;2.30;;;27.30;88.50;;;;;;6188287;28;20274;-67
2022/07/13 15:39:00;;;;;;;2.00;1.90;;;27.10;87.90;;;;;;6187832;28;20557;-67
2022/07/13 15:42:06;;;;;;;2.30;2.17;;;26.80;89.80;;;;;;6187448;28;20278;-67
2022/07/13 15:45:12;;;;;;;2.85;1.70;;;26.50;89.20;;;;;;6187545;28;20343;-68
2022/07/13 15:48:20;;;;;;;2.80;2.70;;;26.20;87.90;;;;;;6187618;28;20297;-67
2022/07/13 15:51:25;;;;;;;5.88;2.20;;;26.00;88.20;;;;;;6187549;28;20275;-67
2022/07/13 15:54:33;;;;;;;2.58;2.38;;;25.80;88.30;;;;;;6187845;28;20295;-67
2022/07/13 15:57:38;;;;;;;2.40;2.22;;;25.60;87.70;;;;;;6187393;28;20282;-67
2022/07/13 16:00:43;;;;;;;2.85;2.65;;;25.50;89.60;;;;;;6192637;28;20274;-67
2022/07/13 16:03:50;;;;;;;1.63;1.63;;;25.40;90.00;;;;;;6191547;28;20277;-67
2022/07/13 16:06:56;;;;;;;2.13;1.92;;;25.30;89.30;;;;;;6168472;29;20322;-67
2022/07/13 16:10:01;;;;;;;6.35;1.60;;;25.00;89.90;;;;;;6168536;29;20286;-67
2022/07/13 16:13:07;;;;;;;6.18;1.30;;;24.90;86.60;;;;;;6168397;29;20307;-68
2022/07/13 16:16:13;;;;;;;2.90;1.30;;;24.60;81.80;;;;;;6168226;29;20266;-68
2022/07/13 16:19:21;;;;;;;3.22;1.40;;;24.40;81.60;;;;;;6168415;29;20434;-68
2022/07/13 16:22:46;;;;;;;2.38;1.20;;;24.40;81.50;;;;;;6168479;29;20270;-68